createdAt,value
2023-04-12T00:00:38.768Z,98.90
2023-04-12T00:03:07.621Z,98.13
2023-04-12T00:05:34.560Z,98.40
2023-04-12T00:08:04.861Z,98.72
2023-04-12T00:10:31.859Z,98.71
2023-04-12T00:12:58.457Z,98.64
2023-04-12T00:15:24.968Z,98.70
2023-04-12T00:17:51.590Z,98.77
2023-04-12T00:20:18.262Z,98.65
2023-04-12T00:22:45.799Z,98.77
2023-04-12T00:25:12.370Z,98.92
2023-04-12T00:27:39.323Z,98.99
2023-04-12T00:30:08.481Z,99.05
2023-04-12T00:32:35.353Z,98.88
2023-04-12T00:35:02.369Z,98.68
2023-04-12T00:37:28.867Z,99.04
2023-04-12T00:39:55.485Z,99.00
2023-04-12T00:42:22.025Z,99.06
2023-04-12T00:44:48.709Z,98.80
2023-04-12T00:47:15.488Z,99.47
2023-04-12T00:49:42.239Z,99.23
2023-04-12T00:52:10.033Z,98.99
2023-04-12T00:54:37.157Z,99.09
2023-04-12T00:57:03.952Z,99.07
2023-04-12T00:59:31.031Z,98.95
2023-04-12T01:01:59.798Z,98.86
2023-04-12T01:04:28.035Z,98.70
2023-04-12T01:07:04.334Z,98.70
2023-04-12T01:09:35.091Z,98.72
2023-04-12T01:12:11.749Z,98.71
2023-04-12T01:14:48.846Z,98.57
2023-04-12T01:17:20.760Z,98.20
2023-04-12T01:19:54.133Z,98.06
2023-04-12T01:22:34.980Z,98.05
2023-04-12T01:25:10.277Z,97.90
2023-04-12T01:27:49.706Z,98.40
2023-04-12T01:30:19.391Z,98.58
2023-04-12T01:32:52.476Z,98.51
2023-04-12T01:35:26.720Z,98.46
2023-04-12T01:37:53.466Z,98.66
2023-04-12T01:40:20.698Z,98.61
2023-04-12T01:42:47.266Z,98.88
2023-04-12T01:45:13.862Z,98.78
2023-04-12T01:47:40.470Z,98.67
2023-04-12T01:50:22.359Z,98.57
2023-04-12T01:52:57.580Z,99.03
2023-04-12T01:55:25.544Z,98.50
2023-04-12T01:57:53.471Z,98.68
2023-04-12T02:00:20.814Z,98.68
2023-04-12T02:02:47.689Z,98.80
2023-04-12T02:05:16.206Z,98.82
2023-04-12T02:07:44.732Z,99.09
2023-04-12T02:10:15.307Z,98.88
2023-04-12T02:12:42.423Z,99.00
2023-04-12T02:15:09.540Z,99.12
2023-04-12T02:17:37.340Z,99.02
2023-04-12T02:20:09.883Z,99.07
2023-04-12T02:22:36.905Z,99.24
2023-04-12T02:25:06.372Z,99.16
2023-04-12T02:27:32.880Z,99.07
2023-04-12T02:29:59.599Z,99.06
2023-04-12T02:32:26.203Z,98.99
2023-04-12T02:34:52.693Z,98.78
2023-04-12T02:37:21.850Z,99.15
2023-04-12T02:39:49.930Z,99.32
2023-04-12T02:42:16.555Z,99.43
2023-04-12T02:44:47.647Z,99.21
2023-04-12T02:47:14.583Z,99.20
2023-04-12T02:49:41.708Z,99.38
2023-04-12T02:52:08.903Z,99.20
2023-04-12T02:54:35.424Z,99.33
2023-04-12T02:57:02.120Z,99.29
2023-04-12T02:59:29.066Z,99.41
2023-04-12T03:01:56.126Z,99.21
2023-04-12T03:04:23.011Z,99.21
2023-04-12T03:06:55.295Z,99.15
2023-04-12T03:09:22.115Z,99.36
2023-04-12T03:11:48.665Z,99.32
2023-04-12T03:14:15.234Z,99.14
2023-04-12T03:16:41.832Z,98.93
2023-04-12T03:19:08.529Z,99.08
2023-04-12T03:21:35.450Z,99.16
2023-04-12T03:24:02.015Z,99.15
2023-04-12T03:26:28.592Z,99.00
2023-04-12T03:29:01.235Z,98.96
2023-04-12T03:31:28.116Z,99.19
2023-04-12T03:33:54.895Z,99.22
2023-04-12T03:36:21.779Z,99.48
2023-04-12T03:38:48.403Z,99.30
2023-04-12T03:41:15.841Z,99.31
2023-04-12T03:43:42.601Z,99.54
2023-04-12T03:46:09.294Z,99.75
2023-04-12T03:48:36.254Z,99.59
2023-04-12T03:51:07.661Z,99.54
2023-04-12T03:53:34.820Z,99.55
2023-04-12T03:56:01.360Z,99.52
2023-04-12T03:58:27.874Z,99.35
2023-04-12T04:00:54.519Z,99.29
2023-04-12T04:03:26.701Z,99.31
2023-04-12T04:05:53.354Z,99.31
2023-04-12T04:08:19.911Z,99.33
2023-04-12T04:10:46.691Z,99.30
2023-04-12T04:13:13.257Z,99.09
2023-04-12T04:15:39.986Z,99.24
2023-04-12T04:18:06.659Z,99.68
2023-04-12T04:20:33.299Z,99.56
2023-04-12T04:22:59.902Z,99.56
2023-04-12T04:25:33.543Z,99.80
2023-04-12T04:28:02.697Z,99.75
2023-04-12T04:30:29.362Z,99.67
2023-04-12T04:32:56.013Z,99.99
2023-04-12T04:35:24.054Z,99.99
2023-04-12T04:37:52.648Z,99.99
2023-04-12T04:40:21.511Z,99.99
2023-04-12T04:42:54.322Z,99.99
2023-04-12T04:45:27.628Z,99.78
2023-04-12T04:47:54.823Z,99.99
2023-04-12T04:50:22.819Z,99.99
2023-04-12T04:52:50.942Z,99.86
2023-04-12T04:55:18.537Z,99.92
2023-04-12T04:57:45.342Z,99.99
2023-04-12T05:00:13.686Z,99.99
2023-04-12T05:02:42.938Z,99.99
2023-04-12T05:05:33.076Z,99.99
2023-04-12T05:07:59.579Z,99.99
2023-04-12T05:10:26.079Z,99.99
2023-04-12T05:12:52.684Z,99.99
2023-04-12T05:15:20.500Z,99.99
2023-04-12T05:17:47.088Z,99.99
2023-04-12T05:20:13.675Z,99.99
2023-04-12T05:22:40.422Z,99.99
2023-04-12T05:25:07.358Z,99.99
2023-04-12T05:27:33.918Z,99.99
2023-04-12T05:30:00.521Z,99.99
2023-04-12T05:32:27.111Z,99.99
2023-04-12T05:34:54.089Z,99.75
2023-04-12T05:37:20.720Z,99.67
2023-04-12T05:39:47.305Z,99.26
2023-04-12T05:42:13.824Z,99.16
2023-04-12T05:44:40.842Z,99.21
2023-04-12T05:47:07.473Z,99.32
2023-04-12T05:49:34.056Z,99.17
2023-04-12T05:52:00.941Z,98.89
2023-04-12T05:54:27.758Z,97.98
2023-04-12T05:56:55.021Z,97.63
2023-04-12T05:59:22.320Z,93.78
2023-04-12T06:01:49.300Z,84.32
2023-04-12T06:04:16.038Z,78.94
2023-04-12T06:06:43.559Z,73.87
2023-04-12T06:09:11.042Z,71.07
2023-04-12T06:11:39.176Z,67.62
2023-04-12T06:14:09.083Z,68.80
2023-04-12T06:16:37.164Z,69.07
2023-04-12T06:19:04.129Z,68.80
2023-04-12T06:21:30.970Z,67.77
2023-04-12T06:23:57.621Z,65.93
2023-04-12T06:26:24.369Z,63.72
2023-04-12T06:28:50.891Z,62.32
2023-04-12T06:31:17.476Z,59.92
2023-04-12T06:33:44.584Z,59.60
2023-04-12T06:36:11.707Z,58.97
2023-04-12T06:38:38.956Z,59.60
2023-04-12T06:41:06.332Z,57.74
2023-04-12T06:43:32.882Z,55.21
2023-04-12T06:46:02.727Z,54.75
2023-04-12T06:48:29.919Z,54.62
2023-04-12T06:50:56.527Z,53.63
2023-04-12T06:53:23.222Z,52.79
2023-04-12T06:55:50.686Z,51.31
2023-04-12T06:58:17.365Z,51.77
2023-04-12T07:00:44.189Z,49.68
2023-04-12T07:03:10.788Z,49.01
2023-04-12T07:05:39.264Z,49.27
2023-04-12T07:08:05.879Z,48.39
2023-04-12T07:10:32.763Z,50.37
2023-04-12T07:13:03.494Z,49.77
2023-04-12T07:15:30.111Z,50.41
2023-04-12T07:17:56.762Z,47.70
2023-04-12T07:20:23.305Z,49.31
2023-04-12T07:22:49.853Z,48.27
2023-04-12T07:25:16.612Z,48.19
2023-04-12T07:27:43.649Z,47.59
2023-04-12T07:30:10.704Z,46.35
2023-04-12T07:32:37.623Z,44.17
2023-04-12T07:35:04.480Z,43.53
2023-04-12T07:37:31.133Z,43.08
2023-04-12T07:39:57.733Z,43.38
2023-04-12T07:42:24.764Z,43.37
2023-04-12T07:44:51.297Z,41.31
2023-04-12T07:47:17.876Z,43.96
2023-04-12T07:49:44.338Z,42.86
2023-04-12T07:52:11.348Z,41.31
2023-04-12T07:54:38.162Z,40.36
2023-04-12T07:57:04.722Z,39.05
2023-04-12T07:59:31.778Z,39.36
2023-04-12T08:01:58.496Z,39.47
2023-04-12T08:04:25.134Z,37.03
2023-04-12T08:06:52.117Z,36.16
2023-04-12T08:09:18.682Z,35.75
2023-04-12T08:11:45.370Z,36.16
2023-04-12T08:14:11.955Z,35.38
2023-04-12T08:16:38.681Z,35.31
2023-04-12T08:19:05.170Z,35.46
2023-04-12T08:21:31.772Z,34.35
2023-04-12T08:23:58.500Z,34.45
2023-04-12T08:26:26.593Z,35.13
2023-04-12T08:28:53.260Z,35.44
2023-04-12T08:31:20.040Z,35.68
2023-04-12T08:33:46.640Z,33.66
2023-04-12T08:36:13.252Z,34.10
2023-04-12T08:38:45.544Z,32.23
2023-04-12T08:41:13.752Z,33.92
2023-04-12T08:43:45.071Z,32.64
2023-04-12T08:46:15.426Z,32.17
2023-04-12T08:48:46.682Z,32.24
2023-04-12T08:51:15.941Z,32.18
2023-04-12T08:53:42.556Z,31.70
2023-04-12T08:56:13.274Z,31.88
2023-04-12T08:58:42.259Z,32.18
2023-04-12T09:01:15.570Z,31.28
2023-04-12T09:03:43.544Z,30.88
2023-04-12T09:06:11.443Z,31.11
2023-04-12T09:08:38.107Z,31.25
2023-04-12T09:11:26.499Z,30.26
2023-04-12T09:13:54.979Z,31.73
2023-04-12T09:16:54.193Z,29.75
2023-04-12T09:19:36.488Z,29.08
2023-04-12T09:22:03.068Z,29.06
2023-04-12T09:24:29.925Z,28.72
2023-04-12T09:27:04.584Z,29.29
2023-04-12T09:29:32.527Z,28.09
2023-04-12T09:32:04.277Z,27.77
2023-04-12T09:34:32.457Z,26.99
2023-04-12T09:36:59.305Z,27.44
2023-04-12T09:39:35.455Z,27.58
2023-04-12T09:42:21.438Z,27.46
2023-04-12T09:44:57.702Z,25.59
2023-04-12T09:47:37.892Z,26.28
2023-04-12T09:50:07.276Z,25.36
2023-04-12T09:52:40.205Z,25.29
2023-04-12T09:55:10.017Z,25.44
2023-04-12T09:57:44.202Z,25.37
2023-04-12T10:00:17.318Z,25.62
2023-04-12T10:02:48.640Z,26.90
2023-04-12T10:05:26.117Z,27.37
2023-04-12T10:07:53.488Z,27.77
2023-04-12T10:10:20.728Z,27.21
2023-04-12T10:12:48.792Z,25.85
2023-04-12T10:15:21.628Z,26.34
2023-04-12T10:17:55.283Z,27.93
2023-04-12T10:20:24.783Z,28.93
2023-04-12T10:22:54.069Z,26.23
2023-04-12T10:25:23.758Z,27.18
2023-04-12T10:27:50.651Z,25.37
2023-04-12T10:30:30.074Z,25.69
2023-04-12T10:33:02.498Z,26.05
2023-04-12T10:35:30.842Z,26.68
2023-04-12T10:38:01.972Z,26.33
2023-04-12T10:40:29.464Z,24.80
2023-04-12T10:43:24.621Z,24.29
2023-04-12T10:45:51.308Z,23.97
2023-04-12T10:48:30.676Z,24.60
2023-04-12T10:51:26.726Z,25.21
2023-04-12T10:53:53.911Z,25.63
2023-04-12T10:56:33.152Z,24.97
2023-04-12T10:59:01.713Z,25.49
2023-04-12T11:01:29.347Z,26.49
2023-04-12T11:04:26.351Z,27.17
2023-04-12T11:06:53.773Z,25.65
2023-04-12T11:09:33.576Z,26.05
2023-04-12T11:12:08.146Z,24.40
2023-04-12T11:14:51.042Z,24.70
2023-04-12T11:17:17.787Z,25.70
2023-04-12T11:19:46.622Z,25.22
2023-04-12T11:22:15.700Z,26.74
2023-04-12T11:24:48.063Z,26.06
2023-04-12T11:27:18.573Z,24.96
2023-04-12T11:29:48.816Z,25.18
2023-04-12T11:32:15.516Z,26.79
2023-04-12T11:34:44.341Z,25.16
2023-04-12T11:37:11.096Z,23.99
2023-04-12T11:39:45.156Z,25.52
2023-04-12T11:42:17.482Z,28.17
2023-04-12T11:47:16.629Z,26.40
2023-04-12T11:49:44.827Z,24.74
2023-04-12T11:52:12.609Z,24.87
2023-04-12T11:54:43.162Z,25.28
2023-04-12T11:57:12.588Z,26.56
2023-04-12T11:59:39.713Z,27.96
2023-04-12T12:02:22.061Z,29.06
2023-04-12T12:04:50.784Z,29.92
2023-04-12T12:07:18.179Z,32.84
2023-04-12T12:09:46.519Z,32.06
2023-04-12T12:12:13.954Z,33.46
2023-04-12T12:14:41.066Z,33.14
2023-04-12T12:17:15.266Z,32.84
2023-04-12T12:19:43.743Z,33.21
2023-04-12T12:22:18.433Z,33.44
2023-04-12T12:24:50.149Z,32.87
2023-04-12T12:27:22.652Z,33.17
2023-04-12T12:29:51.523Z,33.69
2023-04-12T12:32:19.727Z,35.02
2023-04-12T12:34:56.669Z,35.27
2023-04-12T12:37:25.013Z,33.30
2023-04-12T12:40:00.981Z,33.53
2023-04-12T12:42:29.050Z,34.98
2023-04-12T12:44:55.664Z,34.62
2023-04-12T12:47:22.406Z,35.07
2023-04-12T12:49:48.985Z,34.36
2023-04-12T12:52:17.794Z,34.61
2023-04-12T12:54:44.886Z,35.19
2023-04-12T12:57:11.485Z,35.40
2023-04-12T12:59:38.196Z,35.86
2023-04-12T13:02:05.758Z,35.21
2023-04-12T13:04:32.677Z,36.00
2023-04-12T13:06:59.400Z,36.96
2023-04-12T13:09:26.111Z,35.98
2023-04-12T13:11:52.766Z,35.71
2023-04-12T13:14:19.337Z,37.29
2023-04-12T13:16:48.239Z,36.82
2023-04-12T13:19:16.103Z,37.17
2023-04-12T13:21:43.204Z,37.13
2023-04-12T13:24:09.752Z,36.02
2023-04-12T13:26:36.295Z,35.08
2023-04-12T13:29:03.250Z,35.15
2023-04-12T13:31:30.042Z,35.21
2023-04-12T13:33:56.674Z,35.70
2023-04-12T13:36:23.227Z,36.14
2023-04-12T13:38:49.949Z,36.46
2023-04-12T13:41:16.513Z,37.42
2023-04-12T13:43:43.046Z,35.90
2023-04-12T13:46:09.600Z,35.99
2023-04-12T13:48:36.177Z,36.13
2023-04-12T13:51:03.702Z,37.12
2023-04-12T13:53:30.959Z,36.57
2023-04-12T13:55:57.509Z,38.38
2023-04-12T13:58:25.778Z,38.35
2023-04-12T14:00:54.196Z,37.70
2023-04-12T14:03:20.978Z,37.42
2023-04-12T14:05:47.652Z,38.22
2023-04-12T14:08:14.197Z,37.61
2023-04-12T14:10:40.807Z,38.49
2023-04-12T14:13:07.415Z,38.02
2023-04-12T14:15:34.015Z,38.43
2023-04-12T14:18:00.741Z,39.27
2023-04-12T14:20:27.343Z,39.43
2023-04-12T14:22:53.916Z,40.43
2023-04-12T14:25:21.280Z,39.52
2023-04-12T14:27:47.791Z,39.63
2023-04-12T14:30:15.479Z,39.69
2023-04-12T14:32:43.962Z,39.91
2023-04-12T14:35:12.360Z,40.56
2023-04-12T14:37:39.014Z,40.76
2023-04-12T14:40:08.772Z,40.97
2023-04-12T14:42:35.597Z,40.77
2023-04-12T14:45:02.209Z,41.29
2023-04-12T14:47:28.878Z,41.18
2023-04-12T14:49:55.682Z,41.86
2023-04-12T14:52:22.318Z,42.36
2023-04-12T14:54:48.819Z,43.84
2023-04-12T14:57:15.478Z,43.95
2023-04-12T14:59:42.164Z,43.49
2023-04-12T15:02:09.058Z,43.80
2023-04-12T15:04:36.014Z,44.87
2023-04-12T15:07:02.702Z,46.09
2023-04-12T15:09:29.356Z,46.78
2023-04-12T15:12:01.005Z,48.49
2023-04-12T15:14:28.322Z,47.38
2023-04-12T15:16:55.518Z,47.55
2023-04-12T15:19:25.110Z,48.04
2023-04-12T15:21:52.504Z,48.07
2023-04-12T15:24:19.716Z,48.38
2023-04-12T15:26:48.804Z,49.18
2023-04-12T15:29:16.530Z,48.60
2023-04-12T15:31:43.560Z,48.60
2023-04-12T15:34:11.120Z,48.40
2023-04-12T15:36:37.836Z,49.63
2023-04-12T15:39:07.055Z,51.01
2023-04-12T15:41:37.667Z,53.09
2023-04-12T15:44:08.317Z,54.51
2023-04-12T15:46:38.044Z,55.52
2023-04-12T15:49:05.483Z,57.22
2023-04-12T15:51:32.323Z,58.56
2023-04-12T15:53:59.581Z,59.40
2023-04-12T15:56:26.404Z,60.61
2023-04-12T15:58:57.193Z,61.82
2023-04-12T16:01:25.191Z,63.25
2023-04-12T16:03:52.326Z,63.46
2023-04-12T16:06:19.917Z,63.41
2023-04-12T16:08:51.467Z,66.51
2023-04-12T16:11:20.271Z,67.38
2023-04-12T16:13:48.457Z,68.25
2023-04-12T16:16:17.401Z,67.70
2023-04-12T16:18:45.321Z,67.77
2023-04-12T16:21:16.575Z,68.35
2023-04-12T16:23:44.216Z,65.86
2023-04-12T16:26:12.186Z,66.13
2023-04-12T16:28:39.458Z,67.41
2023-04-12T16:31:06.879Z,65.69
2023-04-12T16:33:33.461Z,66.34
2023-04-12T16:36:01.410Z,66.78
2023-04-12T16:38:28.005Z,67.26
2023-04-12T16:40:54.724Z,67.63
2023-04-12T16:43:21.229Z,68.51
2023-04-12T16:45:49.116Z,67.83
2023-04-12T16:48:16.026Z,67.97
2023-04-12T16:50:47.220Z,68.73
2023-04-12T16:53:15.891Z,68.49
2023-04-12T16:55:43.919Z,68.78
2023-04-12T16:58:11.344Z,69.07
2023-04-12T17:00:38.889Z,68.45
2023-04-12T17:03:09.591Z,69.20
2023-04-12T17:05:36.260Z,69.61
2023-04-12T17:08:05.500Z,69.10
2023-04-12T17:10:33.255Z,69.57
2023-04-12T17:13:01.652Z,69.76
2023-04-12T17:15:29.338Z,70.23
2023-04-12T17:18:04.870Z,70.47
2023-04-12T17:20:32.828Z,70.33
2023-04-12T17:22:59.767Z,69.66
2023-04-12T17:25:31.020Z,70.75
2023-04-12T17:27:59.611Z,70.20
2023-04-12T17:30:26.416Z,71.09
2023-04-12T17:32:53.280Z,71.96
2023-04-12T17:35:20.351Z,71.49
2023-04-12T17:37:47.200Z,71.55
2023-04-12T17:40:15.279Z,71.77
2023-04-12T17:42:43.532Z,72.17
2023-04-12T17:45:12.420Z,72.36
2023-04-12T17:47:40.402Z,72.34
2023-04-12T17:50:11.108Z,72.32
2023-04-12T17:52:38.389Z,73.19
2023-04-12T17:55:07.302Z,73.48
2023-04-12T17:57:33.847Z,73.16
2023-04-12T18:00:00.453Z,73.23
2023-04-12T18:02:27.143Z,73.57
2023-04-12T18:04:54.031Z,74.54
2023-04-12T18:07:21.386Z,73.97
2023-04-12T18:09:48.171Z,74.13
2023-04-12T18:12:14.709Z,74.05
2023-04-12T18:14:41.241Z,73.24
2023-04-12T18:17:08.293Z,73.40
2023-04-12T18:19:35.057Z,73.74
2023-04-12T18:22:01.779Z,73.57
2023-04-12T18:24:28.372Z,73.80
2023-04-12T18:26:55.029Z,73.71
2023-04-12T18:29:21.838Z,73.77
2023-04-12T18:31:48.417Z,74.17
2023-04-12T18:34:18.267Z,74.11
2023-04-12T18:36:45.266Z,74.13
2023-04-12T18:39:11.767Z,73.87
2023-04-12T18:41:38.346Z,74.47
2023-04-12T18:44:04.886Z,74.16
2023-04-12T18:46:31.532Z,73.88
2023-04-12T18:48:58.612Z,73.81
2023-04-12T18:51:25.232Z,73.64
2023-04-12T18:53:51.835Z,73.87
2023-04-12T18:56:23.217Z,74.28
2023-04-12T18:58:56.013Z,74.04
2023-04-12T19:01:23.400Z,74.16
2023-04-12T19:03:50.296Z,74.15
2023-04-12T19:06:17.060Z,74.47
2023-04-12T19:08:43.735Z,74.22
2023-04-12T19:11:10.572Z,74.39
2023-04-12T19:13:38.208Z,74.51
2023-04-12T19:16:08.564Z,74.19
2023-04-12T19:18:35.287Z,74.14
2023-04-12T19:21:02.930Z,74.09
2023-04-12T19:23:30.746Z,73.90
2023-04-12T19:25:59.712Z,74.08
2023-04-12T19:28:27.124Z,74.31
2023-04-12T19:30:53.745Z,74.43
2023-04-12T19:33:20.455Z,74.46
2023-04-12T19:35:47.455Z,74.60
2023-04-12T19:38:15.576Z,74.41
2023-04-12T19:40:42.508Z,74.51
2023-04-12T19:43:09.121Z,74.71
2023-04-12T19:45:35.980Z,75.44
2023-04-12T19:48:02.619Z,76.06
2023-04-12T19:50:30.879Z,76.75
2023-04-12T19:52:57.640Z,77.74
2023-04-12T19:55:25.120Z,78.24
2023-04-12T19:57:51.828Z,78.56
2023-04-12T20:00:23.160Z,79.57
2023-04-12T20:02:51.796Z,80.31
2023-04-12T20:05:20.216Z,81.55
2023-04-12T20:07:46.914Z,83.12
2023-04-12T20:10:15.206Z,83.50
2023-04-12T20:12:41.818Z,84.09
2023-04-12T20:15:11.380Z,84.01
2023-04-12T20:17:41.749Z,84.63
2023-04-12T20:20:14.144Z,84.81
2023-04-12T20:22:42.198Z,84.91
2023-04-12T20:25:10.771Z,85.16
2023-04-12T20:27:38.890Z,85.43
2023-04-12T20:30:07.214Z,85.51
2023-04-12T20:32:35.795Z,85.72
2023-04-12T20:35:03.912Z,86.13
2023-04-12T20:37:30.502Z,85.76
2023-04-12T20:39:57.053Z,85.61
2023-04-12T20:42:23.707Z,85.54
2023-04-12T20:44:50.337Z,85.94
2023-04-12T20:47:18.270Z,86.14
2023-04-12T20:49:46.098Z,86.20
2023-04-12T20:52:16.619Z,86.17
2023-04-12T20:54:45.371Z,86.74
2023-04-12T20:57:12.999Z,86.28
2023-04-12T20:59:39.594Z,86.39
2023-04-12T21:02:06.229Z,86.10
2023-04-12T21:04:36.123Z,86.36
2023-04-12T21:07:03.117Z,86.64
2023-04-12T21:09:29.948Z,87.03
2023-04-12T21:11:57.825Z,87.68
2023-04-12T21:14:24.499Z,87.84
2023-04-12T21:16:52.528Z,88.46
2023-04-12T21:19:19.256Z,89.13
2023-04-12T21:21:46.210Z,89.65
2023-04-12T21:24:13.256Z,89.73
2023-04-12T21:26:40.802Z,89.99
2023-04-12T21:29:07.334Z,90.01
2023-04-12T21:31:34.020Z,90.83
2023-04-12T21:34:00.600Z,90.78
2023-04-12T21:36:28.751Z,91.02
2023-04-12T21:38:56.437Z,91.42
2023-04-12T21:41:24.360Z,91.43
2023-04-12T21:43:52.113Z,92.05
2023-04-12T21:46:18.916Z,92.08
2023-04-12T21:48:46.098Z,92.02
2023-04-12T21:51:12.641Z,92.43
2023-04-12T21:53:39.397Z,92.94
2023-04-12T21:56:06.443Z,92.57
2023-04-12T21:58:33.415Z,92.67
2023-04-12T22:01:00.179Z,92.93
2023-04-12T22:03:27.136Z,93.11
2023-04-12T22:06:03.430Z,93.26
2023-04-12T22:08:32.685Z,92.81
2023-04-12T22:11:00.197Z,92.82
2023-04-12T22:13:27.198Z,93.20
2023-04-12T22:15:53.726Z,93.30
2023-04-12T22:18:20.508Z,93.38
2023-04-12T22:20:47.727Z,93.79
2023-04-12T22:23:18.115Z,93.92
2023-04-12T22:25:45.659Z,93.77
2023-04-12T22:28:12.482Z,94.00
2023-04-12T22:30:39.382Z,94.11
2023-04-12T22:33:06.203Z,94.44
2023-04-12T22:35:35.148Z,94.73
2023-04-12T22:38:01.932Z,94.91
2023-04-12T22:40:28.611Z,95.27
2023-04-12T22:42:58.035Z,95.30
2023-04-12T22:45:25.780Z,95.41
2023-04-12T22:47:52.857Z,95.33
2023-04-12T22:50:19.976Z,95.32
2023-04-12T22:52:49.511Z,95.46
2023-04-12T22:55:18.071Z,95.76
2023-04-12T22:57:44.974Z,95.71
2023-04-12T23:00:17.086Z,95.65
2023-04-12T23:02:46.448Z,95.83
2023-04-12T23:05:13.945Z,95.98
2023-04-12T23:07:41.211Z,96.20
2023-04-12T23:10:08.757Z,96.40
2023-04-12T23:12:37.137Z,96.38
2023-04-12T23:15:04.262Z,96.51
2023-04-12T23:17:30.798Z,96.57
2023-04-12T23:19:57.582Z,96.66
2023-04-12T23:22:48.514Z,97.06
2023-04-12T23:25:21.938Z,97.02
2023-04-12T23:27:49.165Z,96.95
2023-04-12T23:30:17.579Z,97.16
2023-04-12T23:32:44.439Z,97.14
2023-04-12T23:35:12.155Z,97.24
2023-04-12T23:37:40.956Z,97.33
2023-04-12T23:40:14.079Z,98.41
2023-04-12T23:42:41.875Z,98.51
2023-04-12T23:45:10.517Z,98.68
2023-04-12T23:47:37.769Z,98.73
2023-04-12T23:50:06.387Z,98.55
2023-04-12T23:52:33.175Z,98.73
2023-04-12T23:54:59.808Z,98.47
2023-04-12T23:57:26.429Z,98.38
2023-04-12T23:59:52.986Z,98.01
